Time;durP1;ratioP1;P1;durP2;ratioP2;P2;SDS_P1;SDS_P2;PMS_P1;PMS_P2;Temp;Humidity;BMP_temperature;BMP_pressure;BME280_temperature;BME280_humidity;BME280_pressure;Samples;Min_cycle;Max_cycle;Signal;HPM_P1;HPM_P2
2021/04/24 00:01:35;;;;;;;0.95;0.90;;;22.50;43.10;;;;;;4996058;28;20697;-41
2021/04/24 00:04:01;;;;;;;1.65;1.20;;;22.50;43.10;;;;;;4999794;28;20098;-42
2021/04/24 00:06:27;;;;;;;0.88;0.88;;;22.50;43.10;;;;;;5003835;28;20520;-41
2021/04/24 00:08:52;;;;;;;1.30;0.70;;;22.50;43.00;;;;;;5006501;28;20026;-41
2021/04/24 00:11:18;;;;;;;0.70;0.70;;;22.50;43.10;;;;;;5027747;28;20073;-41
2021/04/24 00:13:44;;;;;;;1.30;1.02;;;22.50;43.10;;;;;;5010733;28;20518;-41
2021/04/24 00:16:10;;;;;;;1.00;1.00;;;22.40;43.10;;;;;;4998920;28;20038;-41
2021/04/24 00:18:35;;;;;;;0.80;0.80;;;22.40;43.10;;;;;;5001682;28;20035;-41
2021/04/24 00:21:01;;;;;;;0.82;0.80;;;22.40;43.20;;;;;;5001537;28;20092;-41
2021/04/24 00:23:27;;;;;;;1.85;1.00;;;22.40;43.90;;;;;;5033965;28;20038;-42
2021/04/24 00:25:52;;;;;;;0.68;0.65;;;22.40;43.30;;;;;;5002557;28;20054;-41
2021/04/24 00:28:18;;;;;;;1.88;1.20;;;22.40;43.20;;;;;;5004477;28;20396;-41
2021/04/24 00:30:43;;;;;;;1.30;0.98;;;22.40;43.20;;;;;;5006876;28;20030;-41
2021/04/24 00:33:09;;;;;;;0.95;0.93;;;22.40;43.30;;;;;;4999569;28;20023;-41
2021/04/24 00:35:35;;;;;;;0.98;0.98;;;22.30;43.40;;;;;;4998662;28;20093;-41
2021/04/24 00:38:00;;;;;;;1.00;1.00;;;22.30;43.30;;;;;;5008811;28;20097;-42
2021/04/24 00:40:26;;;;;;;1.45;1.10;;;22.30;43.30;;;;;;4996239;28;20027;-41
2021/04/24 00:42:52;;;;;;;1.20;1.10;;;22.30;43.40;;;;;;5005866;28;20121;-42
2021/04/24 00:45:21;;;;;;;1.20;1.10;;;22.30;43.40;;;;;;4998749;28;20457;-42
2021/04/24 00:47:47;;;;;;;1.10;1.10;;;22.30;43.40;;;;;;4998135;28;20076;-41
2021/04/24 00:50:15;;;;;;;1.33;1.00;;;22.30;43.50;;;;;;5009718;28;20030;-41
2021/04/24 00:52:41;;;;;;;1.00;0.90;;;22.30;44.20;;;;;;4995573;28;20026;-40
2021/04/24 00:55:07;;;;;;;0.90;0.90;;;22.20;43.60;;;;;;5009202;28;20139;-40
2021/04/24 00:57:33;;;;;;;0.98;0.98;;;22.20;43.60;;;;;;5002831;28;20564;-41
2021/04/24 00:59:58;;;;;;;1.23;1.13;;;22.30;43.50;;;;;;5029403;28;20101;-42
2021/04/24 01:02:24;;;;;;;1.30;1.20;;;22.30;43.50;;;;;;5030186;28;20025;-40
2021/04/24 01:04:49;;;;;;;0.80;0.80;;;22.30;43.50;;;;;;4996100;28;20076;-41
2021/04/24 01:07:15;;;;;;;0.90;0.90;;;22.20;43.50;;;;;;5009772;28;20435;-42
2021/04/24 01:09:41;;;;;;;1.08;0.90;;;22.20;43.50;;;;;;5006870;28;20169;-40
2021/04/24 01:12:07;;;;;;;1.10;1.10;;;22.30;43.50;;;;;;4998030;28;20504;-41
2021/04/24 01:14:33;;;;;;;1.02;1.02;;;22.30;43.40;;;;;;4997447;28;20097;-40
2021/04/24 01:16:58;;;;;;;1.38;0.90;;;22.30;43.40;;;;;;5009848;28;20511;-42
2021/04/24 01:19:24;;;;;;;0.90;0.90;;;22.30;43.50;;;;;;4995385;28;20022;-42
2021/04/24 01:21:50;;;;;;;0.98;0.98;;;22.30;43.40;;;;;;4992966;28;20026;-41
2021/04/24 01:24:16;;;;;;;1.27;1.23;;;22.30;43.50;;;;;;4998610;28;20033;-40
2021/04/24 01:26:42;;;;;;;0.85;0.85;;;22.30;43.40;;;;;;5006001;28;20042;-40
2021/04/24 01:29:07;;;;;;;1.23;0.98;;;22.30;43.30;;;;;;5009390;28;20048;-41
2021/04/24 01:31:34;;;;;;;0.95;0.95;;;22.30;43.40;;;;;;5005509;28;20061;-40
2021/04/24 01:33:59;;;;;;;1.00;1.00;;;22.30;43.40;;;;;;4997745;28;20030;-42
2021/04/24 01:36:25;;;;;;;1.27;1.20;;;22.30;43.40;;;;;;5001909;28;20046;-40
2021/04/24 01:38:50;;;;;;;1.00;1.00;;;22.30;43.40;;;;;;5004995;28;20024;-40
2021/04/24 01:41:16;;;;;;;0.80;0.80;;;22.30;43.50;;;;;;5008943;28;20038;-40
2021/04/24 01:43:41;;;;;;;1.05;1.05;;;22.20;43.50;;;;;;4998935;28;20057;-41
2021/04/24 01:46:07;;;;;;;1.77;1.17;;;22.30;43.50;;;;;;5004992;28;20037;-41
2021/04/24 01:48:33;;;;;;;1.02;1.02;;;22.30;43.50;;;;;;4998635;28;20028;-41
2021/04/24 01:50:58;;;;;;;0.75;0.75;;;22.30;43.50;;;;;;4998155;28;20080;-41
2021/04/24 01:53:24;;;;;;;0.90;0.90;;;22.20;43.40;;;;;;5006536;28;20030;-41
2021/04/24 01:55:50;;;;;;;1.25;1.15;;;22.20;43.60;;;;;;4994417;28;20070;-41
2021/04/24 01:58:20;;;;;;;2.45;0.80;;;22.20;44.30;;;;;;5008181;28;20041;-45
2021/04/24 02:00:49;;;;;;;0.90;0.90;;;22.20;43.60;;;;;;5013056;28;20117;-43
2021/04/24 02:03:14;;;;;;;1.95;0.88;;;22.20;43.60;;;;;;5004682;28;20034;-41
2021/04/24 02:05:41;;;;;;;1.00;0.90;;;22.20;43.60;;;;;;5002718;28;20381;-42
2021/04/24 02:08:12;;;;;;;1.15;1.00;;;22.20;43.60;;;;;;5010837;28;20025;-42
2021/04/24 02:10:38;;;;;;;0.82;0.82;;;22.20;43.60;;;;;;5008650;28;20079;-42
2021/04/24 02:13:15;;;;;;;1.00;1.00;;;22.20;43.60;;;;;;4997263;28;20058;-41
2021/04/24 02:15:41;;;;;;;1.00;0.90;;;22.10;44.30;;;;;;5006037;28;20033;-40
2021/04/24 02:18:07;;;;;;;1.27;1.17;;;22.10;43.70;;;;;;5001093;28;20029;-42
2021/04/24 02:20:33;;;;;;;1.13;1.00;;;22.10;43.70;;;;;;4995656;28;20029;-41
2021/04/24 02:22:58;;;;;;;0.90;0.90;;;22.10;43.60;;;;;;4995145;28;20101;-42
2021/04/24 02:25:24;;;;;;;1.15;1.00;;;22.10;43.60;;;;;;4994914;28;20138;-41
2021/04/24 02:27:50;;;;;;;0.90;0.90;;;22.10;43.70;;;;;;5006586;28;20503;-41
2021/04/24 02:30:17;;;;;;;0.80;0.80;;;22.10;43.60;;;;;;5001320;28;20022;-41
2021/04/24 02:32:43;;;;;;;2.25;1.00;;;22.20;43.60;;;;;;4997349;28;20038;-42
2021/04/24 02:35:09;;;;;;;1.88;1.13;;;22.10;43.50;;;;;;4995351;28;20044;-41
2021/04/24 02:37:35;;;;;;;0.90;0.90;;;22.10;43.60;;;;;;4993703;28;20538;-41
2021/04/24 02:40:01;;;;;;;1.45;1.00;;;22.10;43.60;;;;;;4996286;28;20037;-41
2021/04/24 02:42:27;;;;;;;1.40;0.90;;;22.10;44.40;;;;;;4996848;28;20033;-43
2021/04/24 02:44:54;;;;;;;0.88;0.88;;;22.10;43.70;;;;;;4993712;28;20019;-42
2021/04/24 02:47:20;;;;;;;0.85;0.85;;;22.10;43.80;;;;;;4997358;28;20407;-41
2021/04/24 02:49:45;;;;;;;1.00;1.00;;;22.10;43.70;;;;;;4992416;28;20034;-41
2021/04/24 02:52:11;;;;;;;1.23;1.15;;;22.10;43.60;;;;;;5005394;28;20034;-41
2021/04/24 02:54:36;;;;;;;1.00;1.00;;;22.10;44.40;;;;;;4997417;28;20109;-42
2021/04/24 02:57:02;;;;;;;0.82;0.82;;;22.10;43.70;;;;;;4995004;28;20053;-41
2021/04/24 02:59:28;;;;;;;1.35;1.00;;;22.10;43.70;;;;;;4996921;28;20037;-40
2021/04/24 03:01:54;;;;;;;0.95;0.95;;;22.00;43.80;;;;;;4997549;28;20101;-41
2021/04/24 03:04:20;;;;;;;1.05;1.00;;;22.00;43.70;;;;;;4998925;28;20037;-41
2021/04/24 03:06:45;;;;;;;1.15;1.15;;;22.00;44.50;;;;;;4996874;28;20026;-42
2021/04/24 03:09:11;;;;;;;1.00;1.00;;;22.00;44.00;;;;;;5000680;28;20396;-42
2021/04/24 03:11:37;;;;;;;1.08;0.98;;;22.00;43.90;;;;;;5017115;28;20035;-42
2021/04/24 03:14:03;;;;;;;1.10;1.00;;;22.00;43.70;;;;;;5015282;28;20056;-43
2021/04/24 03:16:29;;;;;;;0.95;0.93;;;22.00;43.80;;;;;;5016386;28;20037;-42
2021/04/24 03:18:54;;;;;;;1.05;1.00;;;22.00;43.80;;;;;;5014537;28;20018;-41
2021/04/24 03:21:21;;;;;;;3.50;0.90;;;22.00;43.80;;;;;;5005560;28;20034;-42
2021/04/24 03:23:47;;;;;;;1.10;1.10;;;22.00;43.80;;;;;;5000397;28;20037;-42
2021/04/24 03:26:12;;;;;;;1.13;1.13;;;22.00;43.80;;;;;;5000053;28;20046;-43
2021/04/24 03:28:38;;;;;;;1.10;1.00;;;22.00;43.90;;;;;;4996823;28;20035;-42
2021/04/24 03:31:03;;;;;;;1.25;1.10;;;22.00;43.80;;;;;;5002740;28;20017;-41
2021/04/24 03:33:29;;;;;;;1.17;1.10;;;22.00;43.80;;;;;;5001711;28;20057;-44
2021/04/24 03:35:54;;;;;;;1.20;1.10;;;22.00;43.80;;;;;;5001911;28;20420;-41
2021/04/24 03:38:20;;;;;;;1.13;1.02;;;22.00;44.40;;;;;;5010798;28;20053;-42
2021/04/24 03:40:45;;;;;;;0.80;0.80;;;22.00;43.80;;;;;;4994994;28;20041;-42
2021/04/24 03:43:11;;;;;;;1.35;1.25;;;22.00;43.70;;;;;;5010366;28;20022;-42
2021/04/24 03:45:37;;;;;;;1.17;1.10;;;22.00;43.80;;;;;;5000654;28;20484;-41
2021/04/24 03:48:03;;;;;;;0.95;0.95;;;22.00;43.70;;;;;;5000258;28;20034;-41
2021/04/24 03:50:28;;;;;;;1.30;1.20;;;22.00;43.80;;;;;;4998518;28;20416;-41
2021/04/24 03:52:54;;;;;;;1.20;1.10;;;21.90;43.90;;;;;;5010165;28;20058;-42
2021/04/24 03:55:20;;;;;;;1.10;1.05;;;21.90;43.90;;;;;;5002880;28;20112;-42
2021/04/24 03:57:46;;;;;;;1.67;1.20;;;21.90;43.90;;;;;;5006897;28;20030;-42
2021/04/24 04:00:12;;;;;;;1.00;1.00;;;21.90;44.10;;;;;;5003557;28;20034;-42
2021/04/24 04:02:56;;;;;;;1.00;1.00;;;21.90;43.90;;;;;;4999189;28;22668;-41
2021/04/24 04:05:22;;;;;;;1.48;1.00;;;22.00;43.80;;;;;;5010945;28;20075;-43
2021/04/24 04:07:47;;;;;;;0.80;0.80;;;21.90;43.80;;;;;;4996753;28;20102;-41
2021/04/24 04:10:13;;;;;;;1.05;1.05;;;21.90;43.90;;;;;;5009466;28;20041;-42
2021/04/24 04:12:39;;;;;;;1.38;1.27;;;21.90;44.00;;;;;;5007465;28;20435;-42
2021/04/24 04:15:05;;;;;;;1.55;1.20;;;21.90;43.90;;;;;;5006917;28;20038;-41
2021/04/24 04:17:31;;;;;;;1.05;1.05;;;21.90;43.90;;;;;;5008840;28;20084;-42
2021/04/24 04:19:57;;;;;;;1.13;1.10;;;21.90;44.00;;;;;;4995822;28;20034;-41
2021/04/24 04:22:23;;;;;;;1.20;1.20;;;21.90;44.00;;;;;;4997916;28;20464;-41
2021/04/24 04:24:48;;;;;;;0.95;0.95;;;21.90;43.90;;;;;;5008443;28;20074;-42
2021/04/24 04:27:14;;;;;;;1.15;1.00;;;21.90;43.70;;;;;;5006477;28;20443;-41
2021/04/24 04:29:39;;;;;;;1.02;1.02;;;21.90;43.90;;;;;;5006314;28;20110;-40
2021/04/24 04:32:05;;;;;;;1.10;1.10;;;21.90;44.00;;;;;;4996255;28;20034;-41
2021/04/24 04:34:31;;;;;;;0.90;0.90;;;21.90;43.90;;;;;;4997211;28;20073;-41
2021/04/24 04:36:56;;;;;;;1.25;1.15;;;21.90;43.90;;;;;;4998989;28;20036;-39
2021/04/24 04:39:22;;;;;;;1.10;1.10;;;21.90;44.00;;;;;;4998929;28;20034;-41
2021/04/24 04:41:47;;;;;;;0.95;0.95;;;21.90;43.90;;;;;;4999284;28;20029;-41
2021/04/24 04:44:13;;;;;;;0.90;0.90;;;21.90;43.80;;;;;;4998173;28;20408;-40
2021/04/24 04:46:38;;;;;;;1.10;1.10;;;21.90;43.90;;;;;;5009742;28;20044;-42
2021/04/24 04:49:04;;;;;;;1.00;1.00;;;21.90;43.80;;;;;;5009586;28;20056;-41
2021/04/24 04:51:30;;;;;;;1.20;1.10;;;21.90;43.90;;;;;;5000057;28;20038;-42
2021/04/24 04:53:55;;;;;;;1.45;1.30;;;21.90;43.90;;;;;;4998488;28;20029;-41
2021/04/24 04:56:21;;;;;;;1.10;1.05;;;21.90;43.80;;;;;;4998469;28;20044;-41
2021/04/24 04:58:46;;;;;;;1.30;1.20;;;21.90;43.80;;;;;;4994803;28;20079;-40
2021/04/24 05:01:12;;;;;;;1.23;1.13;;;21.90;43.90;;;;;;4997538;28;20062;-41
2021/04/24 05:03:38;;;;;;;1.20;1.20;;;21.90;44.00;;;;;;5006765;28;20396;-39
2021/04/24 05:06:04;;;;;;;1.27;1.17;;;21.90;43.90;;;;;;5002500;28;20125;-40
2021/04/24 05:08:30;;;;;;;1.08;1.08;;;21.80;43.90;;;;;;5002560;28;20122;-41
2021/04/24 05:10:55;;;;;;;0.90;0.90;;;21.90;43.90;;;;;;4994956;28;20030;-41
2021/04/24 05:13:21;;;;;;;1.10;1.00;;;21.90;43.80;;;;;;5002147;28;20101;-41
2021/04/24 05:15:46;;;;;;;1.20;1.10;;;21.90;44.00;;;;;;4998841;28;20420;-42
2021/04/24 05:18:12;;;;;;;1.10;1.05;;;21.90;43.90;;;;;;5003028;28;20395;-40
2021/04/24 05:20:38;;;;;;;0.95;0.95;;;21.80;43.80;;;;;;5006340;28;20037;-40
2021/04/24 05:23:03;;;;;;;1.13;1.13;;;21.80;43.90;;;;;;4995569;28;20530;-40
2021/04/24 05:25:29;;;;;;;1.00;1.00;;;21.80;44.00;;;;;;5008082;28;20124;-41
2021/04/24 05:27:54;;;;;;;1.10;1.10;;;21.80;43.80;;;;;;5008827;28;20041;-41
2021/04/24 05:30:20;;;;;;;1.13;1.13;;;21.80;43.90;;;;;;5005244;28;20022;-40
2021/04/24 05:32:46;;;;;;;1.42;1.33;;;21.80;43.90;;;;;;5029625;28;20026;-40
2021/04/24 05:35:15;;;;;;;1.00;1.00;;;21.80;43.90;;;;;;4997369;28;20036;-40
2021/04/24 05:37:41;;;;;;;0.85;0.85;;;21.80;44.00;;;;;;4993811;28;20519;-39
2021/04/24 05:40:07;;;;;;;1.20;1.10;;;21.70;44.00;;;;;;4997816;28;20030;-40
2021/04/24 05:42:32;;;;;;;0.70;0.70;;;21.80;44.00;;;;;;4997555;28;20128;-40
2021/04/24 05:44:58;;;;;;;0.98;0.98;;;21.80;44.10;;;;;;4998317;28;20509;-40
2021/04/24 05:47:24;;;;;;;0.80;0.80;;;21.70;44.10;;;;;;4997631;28;20140;-41
2021/04/24 05:49:51;;;;;;;1.45;1.35;;;21.80;44.00;;;;;;4997316;28;20033;-42
2021/04/24 05:52:16;;;;;;;0.82;0.82;;;21.80;44.00;;;;;;5008965;28;20076;-41
2021/04/24 05:54:43;;;;;;;0.90;0.90;;;21.80;44.00;;;;;;5016770;28;20038;-42
2021/04/24 05:57:09;;;;;;;0.98;0.93;;;21.80;43.90;;;;;;5007055;28;20164;-42
2021/04/24 05:59:35;;;;;;;1.00;1.00;;;21.80;44.00;;;;;;5012570;28;20108;-41
2021/04/24 06:02:00;;;;;;;1.10;1.00;;;21.80;44.00;;;;;;5011664;28;20080;-43
2021/04/24 06:04:26;;;;;;;1.10;1.00;;;21.80;44.60;;;;;;5009578;28;20632;-42
2021/04/24 06:06:52;;;;;;;0.95;0.95;;;21.70;43.90;;;;;;5009128;28;20038;-42
2021/04/24 06:09:17;;;;;;;1.00;1.00;;;21.80;44.00;;;;;;5016238;28;20475;-42
2021/04/24 06:11:43;;;;;;;0.70;0.70;;;21.70;43.90;;;;;;5009321;28;20040;-41
2021/04/24 06:14:08;;;;;;;0.90;0.90;;;21.80;44.00;;;;;;5013760;28;20041;-42
2021/04/24 06:16:34;;;;;;;1.33;1.25;;;21.70;43.90;;;;;;5015341;28;20030;-40
2021/04/24 06:18:59;;;;;;;1.20;1.10;;;21.70;44.50;;;;;;5008816;28;20431;-43
2021/04/24 06:21:25;;;;;;;1.20;1.20;;;21.80;43.90;;;;;;5010656;28;20076;-42
2021/04/24 06:23:51;;;;;;;1.05;1.05;;;21.70;43.90;;;;;;5007581;28;20068;-42
2021/04/24 06:26:16;;;;;;;0.85;0.85;;;21.80;44.00;;;;;;5005938;28;20115;-45
2021/04/24 06:28:42;;;;;;;1.20;1.15;;;21.70;46.10;;;;;;5005080;28;20030;-42
2021/04/24 06:31:08;;;;;;;1.13;0.95;;;21.70;45.20;;;;;;5006280;28;20482;-42
2021/04/24 06:33:33;;;;;;;1.23;1.13;;;21.70;44.90;;;;;;5004611;28;20034;-41
2021/04/24 06:35:59;;;;;;;1.27;1.23;;;21.70;45.00;;;;;;5000838;28;20574;-41
2021/04/24 06:38:24;;;;;;;1.08;1.00;;;21.70;45.00;;;;;;5002238;28;20034;-41
2021/04/24 06:40:50;;;;;;;1.10;1.10;;;21.70;45.10;;;;;;5002197;28;20134;-41
2021/04/24 06:43:15;;;;;;;1.08;1.08;;;21.70;45.10;;;;;;5004304;28;20084;-42
2021/04/24 06:45:41;;;;;;;1.27;1.17;;;21.70;45.10;;;;;;5000939;28;20080;-42
2021/04/24 06:48:07;;;;;;;1.40;1.30;;;21.80;44.90;;;;;;5006285;28;20065;-42
2021/04/24 06:50:33;;;;;;;1.52;1.15;;;21.80;45.00;;;;;;5006031;28;20424;-43
2021/04/24 06:52:58;;;;;;;1.20;1.10;;;21.80;45.00;;;;;;4999847;28;20393;-41
2021/04/24 06:55:25;;;;;;;1.40;1.30;;;21.80;44.90;;;;;;5003810;28;20107;-41
2021/04/24 06:57:59;;;;;;;1.21;1.11;;;21.80;44.90;;;;;;4923412;28;10001093;-41
2021/04/24 07:00:24;;;;;;;0.98;0.98;;;21.80;45.00;;;;;;5003985;28;20247;-41
2021/04/24 07:02:50;;;;;;;0.93;0.82;;;21.80;45.10;;;;;;5012346;28;20025;-42
2021/04/24 07:05:16;;;;;;;1.10;1.10;;;21.80;45.30;;;;;;5011888;28;20036;-41
2021/04/24 07:07:42;;;;;;;1.10;1.00;;;21.70;45.20;;;;;;5005465;28;20063;-40
2021/04/24 07:10:08;;;;;;;1.83;1.00;;;21.80;45.20;;;;;;5007826;28;20508;-42
2021/04/24 07:12:34;;;;;;;2.53;1.50;;;21.80;45.10;;;;;;5001156;28;20049;-42
2021/04/24 07:14:59;;;;;;;1.33;1.23;;;21.80;44.90;;;;;;5004580;28;20033;-40
2021/04/24 07:17:25;;;;;;;3.55;1.60;;;21.80;45.60;;;;;;5004958;28;20560;-42
2021/04/24 07:19:51;;;;;;;1.48;1.30;;;21.80;45.00;;;;;;5004097;28;20029;-43
2021/04/24 07:22:17;;;;;;;2.25;1.20;;;22.10;44.80;;;;;;5004760;28;20032;-41
2021/04/24 07:24:45;;;;;;;1.25;1.15;;;22.10;44.90;;;;;;5002152;28;20034;-42
2021/04/24 07:27:12;;;;;;;1.20;1.17;;;22.00;44.60;;;;;;5002408;28;20421;-41
2021/04/24 07:29:38;;;;;;;1.02;1.02;;;22.10;44.20;;;;;;4996849;28;20117;-43
2021/04/24 07:32:04;;;;;;;1.77;1.13;;;22.10;44.90;;;;;;4996905;28;21395;-42
2021/04/24 07:34:30;;;;;;;1.30;1.20;;;22.10;45.00;;;;;;4999118;28;20033;-42
2021/04/24 07:36:56;;;;;;;1.67;1.20;;;22.10;44.90;;;;;;5001617;28;20061;-43
2021/04/24 07:39:21;;;;;;;1.58;1.48;;;22.10;44.60;;;;;;4998058;28;20041;-43
2021/04/24 07:41:47;;;;;;;1.42;1.30;;;22.10;44.70;;;;;;4997459;28;20030;-43
2021/04/24 07:44:12;;;;;;;1.60;1.50;;;22.10;45.60;;;;;;5001495;28;20697;-42
2021/04/24 07:46:38;;;;;;;1.88;1.08;;;22.20;44.60;;;;;;5002855;28;20026;-43
2021/04/24 07:49:04;;;;;;;1.13;1.13;;;22.30;44.40;;;;;;5001420;28;20108;-45
2021/04/24 07:51:29;;;;;;;1.77;1.50;;;22.40;44.50;;;;;;5004819;28;20033;-45
2021/04/24 07:53:55;;;;;;;1.38;1.27;;;22.40;44.10;;;;;;5005749;28;20033;-46
2021/04/24 07:56:20;;;;;;;2.20;1.20;;;22.40;44.00;;;;;;5006138;28;20038;-45
2021/04/24 07:58:46;;;;;;;9.80;1.48;;;22.40;44.00;;;;;;5006173;28;20486;-46
2021/04/24 08:01:11;;;;;;;1.30;1.20;;;22.40;44.20;;;;;;5006552;28;20042;-46
2021/04/24 08:03:37;;;;;;;1.48;1.10;;;22.40;44.10;;;;;;5006470;28;20029;-46
2021/04/24 08:06:03;;;;;;;1.70;1.60;;;22.40;44.10;;;;;;5006379;28;20441;-44
2021/04/24 08:08:29;;;;;;;1.70;1.60;;;22.50;43.90;;;;;;5006881;28;20046;-44
2021/04/24 08:10:54;;;;;;;1.73;1.60;;;22.50;44.50;;;;;;5001550;28;20034;-45
2021/04/24 08:13:20;;;;;;;1.67;1.58;;;22.40;44.00;;;;;;5004264;28;20076;-52
2021/04/24 08:15:45;;;;;;;1.27;1.20;;;22.40;44.00;;;;;;5007299;28;20072;-46
2021/04/24 08:18:11;;;;;;;1.40;1.30;;;22.40;44.30;;;;;;5006134;28;20112;-46
2021/04/24 08:20:37;;;;;;;1.40;1.30;;;22.40;44.30;;;;;;5001672;28;20037;-44
2021/04/24 08:23:02;;;;;;;1.70;1.60;;;22.50;44.10;;;;;;5004988;28;20026;-45
2021/04/24 08:25:28;;;;;;;1.23;1.23;;;22.50;44.00;;;;;;5006409;28;20058;-43
2021/04/24 08:27:53;;;;;;;2.65;1.23;;;22.50;44.30;;;;;;5007658;28;20598;-43
2021/04/24 08:30:20;;;;;;;1.10;1.10;;;22.60;44.30;;;;;;4657420;28;9999934;-44
2021/04/24 08:32:47;;;;;;;1.38;1.17;;;22.50;44.20;;;;;;4999829;28;20053;-45
2021/04/24 08:35:13;;;;;;;1.60;1.50;;;22.60;44.20;;;;;;5000534;28;20041;-44
2021/04/24 08:37:39;;;;;;;2.58;1.30;;;22.70;43.90;;;;;;5000601;28;20041;-44
2021/04/24 08:40:06;;;;;;;1.30;1.17;;;22.60;44.40;;;;;;5002139;28;20033;-44
2021/04/24 08:42:31;;;;;;;2.05;1.52;;;22.40;44.50;;;;;;5000407;28;20547;-44
2021/04/24 08:44:57;;;;;;;1.42;1.35;;;22.40;45.10;;;;;;5003215;28;20026;-44
2021/04/24 08:47:23;;;;;;;1.20;1.20;;;22.50;45.50;;;;;;4999821;28;20581;-45
2021/04/24 08:49:50;;;;;;;2.17;1.30;;;22.50;44.20;;;;;;5002097;28;20026;-43
2021/04/24 08:52:19;;;;;;;1.77;1.30;;;22.50;44.40;;;;;;5001944;28;20041;-45
2021/04/24 08:54:44;;;;;;;2.50;1.40;;;22.50;44.30;;;;;;5003185;28;20794;-44
2021/04/24 08:57:10;;;;;;;1.50;1.25;;;22.60;44.10;;;;;;5003117;28;20029;-43
2021/04/24 08:59:36;;;;;;;1.40;1.30;;;22.70;44.30;;;;;;5002214;28;20608;-46
2021/04/24 09:02:01;;;;;;;1.42;1.10;;;22.70;44.20;;;;;;5000723;28;20096;-44
2021/04/24 09:04:27;;;;;;;1.10;1.10;;;22.60;44.20;;;;;;5004243;28;20045;-46
2021/04/24 09:06:52;;;;;;;0.95;0.95;;;22.70;44.10;;;;;;5004790;28;20105;-44
2021/04/24 09:09:23;;;;;;;1.17;1.15;;;22.60;44.00;;;;;;4999598;28;20467;-46
2021/04/24 09:11:49;;;;;;;3.88;1.13;;;22.70;44.00;;;;;;5000116;28;20121;-44
2021/04/24 09:14:16;;;;;;;1.77;1.50;;;22.70;43.60;;;;;;5001278;28;20521;-43
2021/04/24 09:16:42;;;;;;;1.33;1.23;;;22.80;43.30;;;;;;5001692;28;20420;-45
2021/04/24 09:19:26;;;;;;;1.27;1.27;;;22.70;43.30;;;;;;5003710;28;20515;-44
2021/04/24 09:22:10;;;;;;;;;;;22.80;43.40;;;;;;5001406;28;20034;-45
2021/04/24 09:24:36;;;;;;;1.75;1.35;;;22.80;43.10;;;;;;5002031;28;19917;-43
2021/04/24 09:27:01;;;;;;;1.95;1.40;;;22.80;43.10;;;;;;5003313;28;20041;-38
2021/04/24 09:29:27;;;;;;;1.92;1.52;;;22.90;43.20;;;;;;5002278;28;20684;-45
2021/04/24 09:32:11;;;;;;;1.80;1.27;;;22.90;42.30;;;;;;4999826;28;20057;-45
2021/04/24 09:34:37;;;;;;;1.45;1.35;;;22.90;42.50;;;;;;4999362;28;20040;-44
2021/04/24 09:37:02;;;;;;;1.83;1.73;;;23.00;42.20;;;;;;5003957;28;20512;-44
2021/04/24 09:39:28;;;;;;;1.60;1.50;;;23.00;42.10;;;;;;5001586;28;20033;-43
2021/04/24 09:41:54;;;;;;;1.40;1.30;;;23.10;41.60;;;;;;4998175;28;20033;-43
2021/04/24 09:44:19;;;;;;;1.60;1.50;;;23.10;41.40;;;;;;4999851;28;20552;-43
2021/04/24 09:46:48;;;;;;;1.85;1.75;;;23.00;41.60;;;;;;4996771;28;20044;-44
2021/04/24 09:49:24;;;;;;;5.40;1.85;;;23.00;41.50;;;;;;5001835;28;20112;-43
2021/04/24 09:51:56;;;;;;;3.60;3.40;;;23.00;41.10;;;;;;5003631;28;20034;-43
2021/04/24 09:54:41;;;;;;;6.38;3.88;;;23.00;41.00;;;;;;5002783;28;20037;-44
2021/04/24 09:57:10;;;;;;;;;;;23.00;40.70;;;;;;5005129;28;20041;-43
2021/04/24 09:59:52;;;;;;;3.40;3.15;;;23.00;42.70;;;;;;5001208;28;20426;-43
2021/04/24 10:02:38;;;;;;;5.43;3.00;;;23.00;42.20;;;;;;5000183;28;20036;-43
2021/04/24 10:05:19;;;;;;;8.48;3.47;;;23.00;41.40;;;;;;5000151;28;20091;-43
2021/04/24 10:07:48;;;;;;;4.65;3.35;;;23.00;40.60;;;;;;5001835;28;20459;-43
2021/04/24 10:10:24;;;;;;;2.97;2.78;;;23.00;40.20;;;;;;4999705;28;20033;-43
2021/04/24 10:13:05;;;;;;;3.10;2.83;;;23.00;40.30;;;;;;5003736;28;20037;-43
2021/04/24 10:15:48;;;;;;;4.05;3.08;;;23.10;39.60;;;;;;5000402;28;20249;-44
2021/04/24 10:18:15;;;;;;;6.65;3.30;;;23.10;40.10;;;;;;4998759;28;20583;-46
2021/04/24 10:20:43;;;;;;;4.28;3.55;;;23.00;39.60;;;;;;4999679;28;20030;-45
2021/04/24 10:23:09;;;;;;;4.38;3.00;;;23.00;41.60;;;;;;4999512;28;20034;-44
2021/04/24 10:25:36;;;;;;;5.28;2.90;;;23.10;41.10;;;;;;5002191;28;20969;-43
2021/04/24 10:28:01;;;;;;;8.63;3.40;;;23.10;40.70;;;;;;4657310;28;10000435;-44
2021/04/24 10:30:27;;;;;;;4.60;3.28;;;23.20;40.10;;;;;;5003464;28;20038;-44
2021/04/24 10:32:52;;;;;;;2.97;2.30;;;23.10;41.00;;;;;;5001211;28;20034;-44
2021/04/24 10:35:18;;;;;;;3.20;2.78;;;23.20;40.80;;;;;;5002720;28;20113;-45
2021/04/24 10:37:47;;;;;;;3.72;2.90;;;23.30;41.20;;;;;;5004602;28;20036;-43
2021/04/24 10:40:13;;;;;;;4.45;3.28;;;23.40;40.10;;;;;;5016642;28;20042;-45
2021/04/24 10:42:39;;;;;;;2.92;2.55;;;23.30;39.90;;;;;;5003614;28;20025;-44
2021/04/24 10:45:06;;;;;;;3.10;2.88;;;23.40;40.30;;;;;;5005002;28;20042;-44
2021/04/24 10:47:59;;;;;;;2.97;2.78;;;23.40;40.30;;;;;;5002061;28;20506;-44
2021/04/24 10:50:44;;;;;;;5.95;3.15;;;23.50;40.40;;;;;;5002030;28;20045;-41
2021/04/24 10:53:18;;;;;;;4.95;2.95;;;23.50;39.80;;;;;;5001322;28;20046;-44
2021/04/24 10:55:44;;;;;;;4.00;3.08;;;23.60;40.10;;;;;;5001471;28;20116;-44
2021/04/24 10:58:23;;;;;;;3.22;2.90;;;23.70;40.20;;;;;;5006620;28;20595;-44
2021/04/24 11:00:56;;;;;;;2.83;2.58;;;23.60;39.90;;;;;;5003122;28;20034;-40
2021/04/24 11:03:34;;;;;;;3.50;2.60;;;23.60;40.40;;;;;;5000700;28;20523;-43
2021/04/24 11:06:13;;;;;;;3.50;2.42;;;23.60;40.70;;;;;;5003141;28;20084;-43
2021/04/24 11:08:40;;;;;;;4.18;2.65;;;23.80;40.80;;;;;;5003449;28;20420;-44
2021/04/24 11:11:27;;;;;;;3.30;3.00;;;23.80;40.60;;;;;;5001081;28;20030;-45
2021/04/24 11:13:54;;;;;;;2.88;2.67;;;23.60;39.60;;;;;;5002295;28;20017;-44
2021/04/24 11:16:20;;;;;;;3.65;2.55;;;23.60;39.60;;;;;;4997989;28;20062;-42
2021/04/24 11:18:50;;;;;;;4.60;2.95;;;23.50;39.10;;;;;;5029150;28;20060;-44
2021/04/24 11:21:20;;;;;;;5.07;2.85;;;23.60;39.30;;;;;;5000649;28;20104;-44
2021/04/24 11:23:59;;;;;;;3.78;2.67;;;23.60;39.80;;;;;;5006058;28;20037;-46
2021/04/24 11:26:31;;;;;;;2.85;2.58;;;23.60;39.60;;;;;;5006059;28;20136;-44
2021/04/24 11:28:56;;;;;;;2.42;2.22;;;23.60;39.60;;;;;;5004303;28;20435;-43
2021/04/24 11:31:49;;;;;;;2.25;1.95;;;23.60;39.80;;;;;;5004217;28;20069;-44
2021/04/24 11:34:31;;;;;;;2.42;2.30;;;23.60;39.90;;;;;;5007249;28;20392;-43
2021/04/24 11:37:15;;;;;;;2.72;2.53;;;23.60;38.60;;;;;;5007756;28;20056;-45
2021/04/24 11:40:16;;;;;;;3.53;2.72;;;23.60;38.40;;;;;;5008336;28;20112;-44
2021/04/24 11:43:13;;;;;;;3.17;2.47;;;23.60;37.70;;;;;;5005805;28;20030;-44
2021/04/24 11:45:52;;;;;;;2.88;2.22;;;23.70;38.30;;;;;;5006187;28;20040;-45
2021/04/24 11:48:47;;;;;;;2.17;1.95;;;23.70;37.80;;;;;;5008789;28;20018;-45
2021/04/24 11:51:31;;;;;;;2.90;2.60;;;23.70;38.30;;;;;;5007572;28;20566;-34
2021/04/24 11:53:57;;;;;;;2.13;1.98;;;23.70;38.80;;;;;;5006104;28;20038;-42
2021/04/24 11:56:23;;;;;;;2.22;1.98;;;23.80;38.40;;;;;;5005251;28;20033;-45
2021/04/24 11:58:48;;;;;;;3.00;2.22;;;23.80;38.20;;;;;;5006202;28;20518;-45
2021/04/24 12:01:21;;;;;;;1.90;1.80;;;23.90;37.70;;;;;;5008257;28;20049;-45
2021/04/24 12:03:47;;;;;;;2.17;2.03;;;23.80;37.80;;;;;;5007689;28;20108;-43
2021/04/24 12:06:12;;;;;;;2.00;1.85;;;23.90;38.10;;;;;;5006243;28;20112;-43
2021/04/24 12:08:38;;;;;;;3.28;1.95;;;23.80;37.50;;;;;;5007235;28;20030;-43
2021/04/24 12:11:09;;;;;;;1.70;1.60;;;23.80;37.90;;;;;;5005116;28;20026;-43
2021/04/24 12:13:35;;;;;;;3.25;1.95;;;23.80;38.70;;;;;;5004359;28;20030;-43
2021/04/24 12:16:00;;;;;;;2.25;2.05;;;23.80;37.90;;;;;;5007488;28;20045;-45
2021/04/24 12:18:30;;;;;;;2.90;2.15;;;23.80;37.40;;;;;;5009299;28;20041;-42
2021/04/24 12:20:56;;;;;;;2.10;1.88;;;23.90;37.10;;;;;;5006957;28;20041;-45
2021/04/24 12:23:21;;;;;;;2.58;1.90;;;23.90;36.20;;;;;;5007921;28;20080;-43
2021/04/24 12:25:47;;;;;;;1.90;1.80;;;23.80;35.80;;;;;;5007900;28;20112;-42
2021/04/24 12:28:13;;;;;;;3.17;1.95;;;23.90;35.80;;;;;;5010563;28;20488;-41
2021/04/24 12:30:46;;;;;;;1.90;1.80;;;23.90;36.10;;;;;;5006722;28;20046;-44
2021/04/24 12:33:16;;;;;;;1.60;1.50;;;23.90;37.00;;;;;;5006266;28;20095;-44
2021/04/24 12:35:45;;;;;;;1.85;1.75;;;23.90;37.30;;;;;;5004418;28;20057;-45
2021/04/24 12:38:20;;;;;;;1.48;1.38;;;23.90;37.70;;;;;;5003682;28;20096;-45
2021/04/24 12:40:47;;;;;;;1.70;1.60;;;23.90;37.30;;;;;;5003412;28;20595;-44
2021/04/24 12:43:21;;;;;;;1.48;1.35;;;23.90;36.70;;;;;;5008778;28;20069;-43
2021/04/24 12:45:47;;;;;;;1.63;1.30;;;23.90;37.90;;;;;;5008075;28;20123;-41
2021/04/24 12:48:15;;;;;;;1.70;1.60;;;23.90;37.20;;;;;;5007344;28;20136;-42
2021/04/24 12:50:41;;;;;;;1.42;1.33;;;23.90;37.20;;;;;;5006048;28;20038;-41